»·PEaware :: WGT15 KGCN-KIFP

WGT15 :: KGCN-KIFP

FLIGHT INFORMATION

Flight Status: Arrived
Operator: Unknown
More flights by this operator :: More flights under this callsign
Pilot: Anonymous 19920 (19920)
Aircraft: AIRBUS A319
(A319)
More flights by this aircraft type
Origin: KGCN Grand Canyon Natl Park
United States
Destination: KIFP Laughlin/Bullhead Intl
United States
More flights between these airports :: More routes between these airports
Route: PARKS4 PGS V210 PRFUM V105 WINDS V8 LYNSY
File this flight plan on PilotEdge
Remarks: PBN / A1B1C1D1O1S1 DOF / 180805 REG / VPCVX CODE / 4001FC OPR / WGT PER / C RMK / TCAS Callsign / Beetle
Altitude:
(Current/Filed)
16,000ft
Speed:
(Current/Filed)
355kts
Departed: 05-Aug-18 11:35 AM
Arrived: 05-Aug-18 12:13 PM
Distance/Time
Traveled:
127nm/0:38
Distance/Time
To Go:
Arrived

Flight Plot

Page will automatically refresh every two minutes.

Flight plan parsing failed; only flown route is shown


Map Options




Map Legend


Flown Route
Filed Route
Departure Airport
Arrival Airport
Navaid (VOR, NDB)
Fix

Horizontal Profiles

Position Reports

Time Latitude Longitude Heading Altitude Ground
Speed
05-Aug-18 10:47 35.961106 -112.135109 222 6632ft 0kts
05-Aug-18 10:48 35.961106 -112.135109 222 6632ft 0kts
05-Aug-18 10:49 35.961106 -112.135109 222 6632ft 0kts
05-Aug-18 10:50 35.961106 -112.135109 222 6632ft 0kts
05-Aug-18 10:51 35.961106 -112.135109 222 6632ft 0kts
05-Aug-18 10:52 35.961106 -112.135109 222 6632ft 0kts
05-Aug-18 10:53 35.961106 -112.135109 222 6632ft 0kts
05-Aug-18 10:54 35.961106 -112.135109 222 6632ft 0kts
05-Aug-18 10:55 35.961106 -112.135109 222 6632ft 0kts
05-Aug-18 10:56 35.961107 -112.135109 222 6632ft 0kts
05-Aug-18 10:57 35.961107 -112.135109 222 6632ft 0kts
05-Aug-18 10:58 35.961107 -112.135109 222 6632ft 0kts
05-Aug-18 10:59 35.961107 -112.135109 222 6632ft 0kts
05-Aug-18 11:00 35.961107 -112.135109 222 6632ft 0kts
05-Aug-18 11:01 35.961107 -112.135109 222 6632ft 0kts
05-Aug-18 11:02 35.961107 -112.135109 222 6632ft 0kts
05-Aug-18 11:03 35.961107 -112.135109 222 6632ft 0kts
05-Aug-18 11:04 35.961107 -112.135109 222 6632ft 0kts
05-Aug-18 11:05 35.961107 -112.135109 222 6632ft 0kts
05-Aug-18 11:06 35.961107 -112.135109 222 6632ft 0kts
05-Aug-18 11:07 35.961107 -112.135109 222 6632ft 0kts
05-Aug-18 11:08 35.961107 -112.135109 222 6632ft 0kts
05-Aug-18 11:09 35.961107 -112.135109 222 6632ft 0kts
05-Aug-18 11:10 35.961107 -112.135109 222 6632ft 0kts
05-Aug-18 11:11 35.961107 -112.135109 222 6632ft 0kts
05-Aug-18 11:12 35.961107 -112.135109 222 6632ft 0kts
05-Aug-18 11:13 35.961107 -112.135109 222 6632ft 0kts
05-Aug-18 11:14 35.961107 -112.135109 222 6632ft 0kts
05-Aug-18 11:15 35.961107 -112.135109 222 6632ft 0kts
05-Aug-18 11:16 35.961107 -112.135109 222 6632ft 0kts
05-Aug-18 11:17 35.961107 -112.135109 222 6632ft 0kts
05-Aug-18 11:18 35.961107 -112.135109 222 6632ft 0kts
05-Aug-18 11:19 35.961107 -112.135109 222 6632ft 0kts
05-Aug-18 11:20 35.961107 -112.135109 222 6632ft 0kts
05-Aug-18 11:21 35.961107 -112.135109 222 6632ft 0kts
05-Aug-18 11:22 35.961107 -112.135109 222 6632ft 0kts
05-Aug-18 11:23 35.961107 -112.135109 222 6632ft 0kts
05-Aug-18 11:24 35.961106 -112.135110 222 6632ft 0kts
05-Aug-18 11:25 35.961106 -112.135110 222 6632ft 0kts
05-Aug-18 11:26 35.961106 -112.135110 222 6632ft 0kts
05-Aug-18 11:27 35.961106 -112.135110 222 6632ft 0kts
05-Aug-18 11:28 35.961106 -112.135110 222 6632ft 0kts
05-Aug-18 11:29 35.961106 -112.135110 222 6632ft 0kts
05-Aug-18 11:30 35.961106 -112.135110 222 6632ft 0kts
05-Aug-18 11:31 35.960903 -112.135608 282 6632ft 10kts
05-Aug-18 11:32 35.961072 -112.136237 315 6629ft 0kts
05-Aug-18 11:33 35.961072 -112.136237 315 6629ft 0kts
05-Aug-18 11:34 35.961072 -112.136237 315 6629ft 0kts
05-Aug-18 11:35 35.961046 -112.137724 221 6626ft 0kts
05-Aug-18 11:36 35.954898 -112.144225 220 6607ft 141kts
05-Aug-18 11:37 35.946296 -112.194454 278 10033ft 174kts
05-Aug-18 11:38 35.938689 -112.274876 249 10303ft 303kts
05-Aug-18 11:39 35.908598 -112.377869 249 13717ft 333kts
05-Aug-18 11:40 35.878850 -112.489175 253 15009ft 370kts
05-Aug-18 11:41 35.849428 -112.614300 253 15010ft 381kts
05-Aug-18 11:42 35.820005 -112.738325 252 15006ft 357kts
05-Aug-18 11:43 35.793326 -112.850156 252 15010ft 338kts
05-Aug-18 11:44 35.766437 -112.962057 251 15271ft 340kts
05-Aug-18 11:45 35.739600 -113.073106 251 15263ft 340kts
05-Aug-18 11:46 35.712485 -113.184766 251 15188ft 340kts
05-Aug-18 11:47 35.685230 -113.296597 251 15187ft 349kts
05-Aug-18 11:48 35.657696 -113.409205 251 16027ft 345kts
05-Aug-18 11:49 35.629995 -113.521950 251 16023ft 345kts
05-Aug-18 11:50 35.598422 -113.633041 248 16023ft 345kts
05-Aug-18 11:51 35.565819 -113.743349 248 16022ft 345kts
05-Aug-18 11:52 35.533075 -113.854048 247 16023ft 345kts
05-Aug-18 11:53 35.515883 -113.948499 277 16019ft 349kts
05-Aug-18 11:54 35.573562 -114.067529 299 16023ft 349kts
05-Aug-18 11:55 35.626963 -114.167157 299 16023ft 349kts
05-Aug-18 11:56 35.671328 -114.250314 299 16023ft 349kts
05-Aug-18 11:57 35.732910 -114.365889 299 14952ft 343kts
05-Aug-18 11:58 35.775778 -114.446533 300 13190ft 336kts
05-Aug-18 11:59 35.826029 -114.541862 296 11115ft 327kts
05-Aug-18 12:00 35.794489 -114.648205 213 10151ft 320kts
05-Aug-18 12:01 35.734113 -114.696749 213 9297ft 296kts
05-Aug-18 12:02 35.658286 -114.748713 183 8825ft 249kts
05-Aug-18 12:03 35.606476 -114.728405 160 8131ft 215kts
05-Aug-18 12:04 35.553681 -114.701783 159 7015ft 219kts
05-Aug-18 12:05 35.497858 -114.673523 160 6620ft 218kts
05-Aug-18 12:06 35.446178 -114.646500 159 6301ft 182kts
05-Aug-18 12:07 35.401914 -114.622802 159 5298ft 170kts
05-Aug-18 12:08 35.358927 -114.599805 159 3744ft 166kts
05-Aug-18 12:09 35.320743 -114.579391 159 2276ft 141kts
05-Aug-18 12:10 35.287201 -114.569124 178 2036ft 124kts
05-Aug-18 12:11 35.253143 -114.566601 178 1578ft 122kts
05-Aug-18 12:12 35.219025 -114.564037 178 1508ft 122kts
05-Aug-18 12:13 35.185060 -114.561462 178 1084ft 122kts
05-Aug-18 12:14 35.157405 -114.559619 174 658ft 28kts
05-Aug-18 12:15 35.155877 -114.558596 89 673ft 7kts
05-Aug-18 12:16 35.159852 -114.558334 356 666ft 24kts
05-Aug-18 12:17 35.162982 -114.557485 87 664ft 5kts
05-Aug-18 12:18 35.163129 -114.556291 82 675ft 0kts
05-Aug-18 12:19 35.163129 -114.556291 82 675ft 0kts

Navigation Log

Ident Type
Flight plan parsing failed, navigation log unavailable